sensor_id;sensor_type;location;lat;lon;timestamp;pressure;altitude;pressure_sealevel;temperature;humidity
72570;BME280;60594;50.204;8.844;2023-03-18T00:01:35;99496.09;;;10.67;75.46
72570;BME280;60594;50.204;8.844;2023-03-18T00:04:03;99495.78;;;10.70;75.37
72570;BME280;60594;50.204;8.844;2023-03-18T00:06:29;99500.16;;;10.71;76.00
72570;BME280;60594;50.204;8.844;2023-03-18T00:08:56;99502.97;;;10.60;75.66
72570;BME280;60594;50.204;8.844;2023-03-18T00:11:23;99506.63;;;10.68;75.98
72570;BME280;60594;50.204;8.844;2023-03-18T00:13:50;99497.78;;;10.68;76.67
72570;BME280;60594;50.204;8.844;2023-03-18T00:16:16;99492.16;;;10.61;75.82
72570;BME280;60594;50.204;8.844;2023-03-18T00:18:43;99503.63;;;10.71;75.26
72570;BME280;60594;50.204;8.844;2023-03-18T00:21:10;99510.25;;;10.67;75.19
72570;BME280;60594;50.204;8.844;2023-03-18T00:23:38;99509.41;;;10.67;75.84
72570;BME280;60594;50.204;8.844;2023-03-18T00:26:04;99519.63;;;10.52;72.63
72570;BME280;60594;50.204;8.844;2023-03-18T00:28:32;99520.16;;;10.36;73.21
72570;BME280;60594;50.204;8.844;2023-03-18T00:31:03;99516.53;;;10.38;73.25
72570;BME280;60594;50.204;8.844;2023-03-18T00:33:38;99518.63;;;10.43;73.15
72570;BME280;60594;50.204;8.844;2023-03-18T00:36:07;99521.75;;;10.49;73.99
72570;BME280;60594;50.204;8.844;2023-03-18T00:38:35;99519.91;;;10.39;73.31
72570;BME280;60594;50.204;8.844;2023-03-18T00:41:01;99529.72;;;10.39;73.48
72570;BME280;60594;50.204;8.844;2023-03-18T00:43:39;99529.16;;;10.45;74.93
72570;BME280;60594;50.204;8.844;2023-03-18T00:46:16;99522.69;;;10.48;74.99
72570;BME280;60594;50.204;8.844;2023-03-18T00:48:44;99524.69;;;10.46;74.08
72570;BME280;60594;50.204;8.844;2023-03-18T00:51:11;99523.00;;;10.35;74.11
72570;BME280;60594;50.204;8.844;2023-03-18T00:53:40;99527.91;;;10.49;75.16
72570;BME280;60594;50.204;8.844;2023-03-18T00:56:07;99520.91;;;10.48;73.45
72570;BME280;60594;50.204;8.844;2023-03-18T00:58:35;99524.56;;;10.57;73.53
72570;BME280;60594;50.204;8.844;2023-03-18T01:01:04;99522.88;;;10.65;73.49
72570;BME280;60594;50.204;8.844;2023-03-18T01:03:31;99527.34;;;10.65;72.91
72570;BME280;60594;50.204;8.844;2023-03-18T01:06:00;99529.19;;;10.74;73.69
72570;BME280;60594;50.204;8.844;2023-03-18T01:08:28;99534.34;;;10.75;72.49
72570;BME280;60594;50.204;8.844;2023-03-18T01:10:56;99522.31;;;10.90;71.49
72570;BME280;60594;50.204;8.844;2023-03-18T01:13:23;99530.00;;;10.93;71.75
72570;BME280;60594;50.204;8.844;2023-03-18T01:15:51;99525.13;;;10.79;71.89
72570;BME280;60594;50.204;8.844;2023-03-18T01:18:17;99523.69;;;10.66;73.91
72570;BME280;60594;50.204;8.844;2023-03-18T01:20:44;99522.75;;;10.67;74.02
72570;BME280;60594;50.204;8.844;2023-03-18T01:23:11;99518.22;;;10.58;76.60
72570;BME280;60594;50.204;8.844;2023-03-18T01:25:40;99517.38;;;10.48;74.76
72570;BME280;60594;50.204;8.844;2023-03-18T01:28:06;99526.22;;;10.48;77.75
72570;BME280;60594;50.204;8.844;2023-03-18T01:30:34;99524.97;;;10.52;76.32
72570;BME280;60594;50.204;8.844;2023-03-18T01:33:02;99533.53;;;10.56;75.59
72570;BME280;60594;50.204;8.844;2023-03-18T01:35:30;99534.94;;;10.60;75.76
72570;BME280;60594;50.204;8.844;2023-03-18T01:37:58;99537.75;;;10.77;76.80
72570;BME280;60594;50.204;8.844;2023-03-18T01:40:25;99534.06;;;10.88;74.93
72570;BME280;60594;50.204;8.844;2023-03-18T01:43:12;99532.53;;;10.57;76.72
72570;BME280;60594;50.204;8.844;2023-03-18T01:45:41;99534.47;;;10.35;76.19
72570;BME280;60594;50.204;8.844;2023-03-18T01:48:17;99534.44;;;10.26;79.47
72570;BME280;60594;50.204;8.844;2023-03-18T01:50:48;99540.19;;;10.21;78.54
72570;BME280;60594;50.204;8.844;2023-03-18T01:53:19;99540.47;;;10.18;77.92
72570;BME280;60594;50.204;8.844;2023-03-18T01:55:47;99537.94;;;10.17;78.94
72570;BME280;60594;50.204;8.844;2023-03-18T01:58:20;99539.50;;;10.19;78.76
72570;BME280;60594;50.204;8.844;2023-03-18T02:00:56;99540.88;;;10.14;78.81
72570;BME280;60594;50.204;8.844;2023-03-18T02:03:26;99528.44;;;10.24;78.51
72570;BME280;60594;50.204;8.844;2023-03-18T02:05:54;99536.69;;;10.21;79.23
72570;BME280;60594;50.204;8.844;2023-03-18T02:08:22;99536.72;;;10.30;81.36
72570;BME280;60594;50.204;8.844;2023-03-18T02:10:48;99529.38;;;10.13;82.54
72570;BME280;60594;50.204;8.844;2023-03-18T02:13:16;99530.31;;;10.03;81.77
72570;BME280;60594;50.204;8.844;2023-03-18T02:15:51;99536.09;;;10.08;82.81
72570;BME280;60594;50.204;8.844;2023-03-18T02:18:26;99528.31;;;10.25;83.94
72570;BME280;60594;50.204;8.844;2023-03-18T02:24:40;99533.34;;;10.28;83.43
72570;BME280;60594;50.204;8.844;2023-03-18T02:29:25;99530.81;;;10.36;84.78
72570;BME280;60594;50.204;8.844;2023-03-18T02:32:00;99532.81;;;10.44;84.35
72570;BME280;60594;50.204;8.844;2023-03-18T02:34:29;99533.22;;;10.39;84.04
72570;BME280;60594;50.204;8.844;2023-03-18T02:36:57;99525.66;;;10.25;84.28
72570;BME280;60594;50.204;8.844;2023-03-18T02:39:24;99522.59;;;10.00;85.22
72570;BME280;60594;50.204;8.844;2023-03-18T02:41:53;99513.28;;;10.15;87.34
72570;BME280;60594;50.204;8.844;2023-03-18T02:44:20;99524.78;;;10.15;87.41
72570;BME280;60594;50.204;8.844;2023-03-18T02:47:13;99526.97;;;10.10;88.36
72570;BME280;60594;50.204;8.844;2023-03-18T02:49:43;99519.38;;;9.96;87.66
72570;BME280;60594;50.204;8.844;2023-03-18T02:52:09;99519.34;;;9.87;88.73
72570;BME280;60594;50.204;8.844;2023-03-18T02:54:36;99514.94;;;9.76;88.24
72570;BME280;60594;50.204;8.844;2023-03-18T02:57:03;99522.25;;;9.44;89.16
72570;BME280;60594;50.204;8.844;2023-03-18T02:59:30;99530.75;;;9.38;90.04
72570;BME280;60594;50.204;8.844;2023-03-18T03:01:58;99536.66;;;9.51;90.67
72570;BME280;60594;50.204;8.844;2023-03-18T03:04:25;99538.09;;;9.55;90.15
72570;BME280;60594;50.204;8.844;2023-03-18T03:06:53;99538.69;;;9.59;90.06
72570;BME280;60594;50.204;8.844;2023-03-18T03:09:32;99533.63;;;9.56;88.85
72570;BME280;60594;50.204;8.844;2023-03-18T03:11:59;99536.41;;;9.54;89.51
72570;BME280;60594;50.204;8.844;2023-03-18T03:14:26;99540.13;;;9.42;89.70
72570;BME280;60594;50.204;8.844;2023-03-18T03:16:58;99550.34;;;9.37;89.84
72570;BME280;60594;50.204;8.844;2023-03-18T03:19:24;99545.84;;;9.38;89.99
72570;BME280;60594;50.204;8.844;2023-03-18T03:21:51;99544.38;;;9.24;90.47
72570;BME280;60594;50.204;8.844;2023-03-18T03:24:17;99541.66;;;8.94;91.36
72570;BME280;60594;50.204;8.844;2023-03-18T03:26:44;99546.22;;;8.72;92.50
72570;BME280;60594;50.204;8.844;2023-03-18T03:29:11;99547.34;;;8.58;92.91
72570;BME280;60594;50.204;8.844;2023-03-18T03:31:37;99544.94;;;8.55;92.61
72570;BME280;60594;50.204;8.844;2023-03-18T03:34:05;99542.09;;;8.47;93.58
72570;BME280;60594;50.204;8.844;2023-03-18T03:36:32;99538.94;;;8.53;92.05
72570;BME280;60594;50.204;8.844;2023-03-18T03:38:59;99546.25;;;8.61;91.84
72570;BME280;60594;50.204;8.844;2023-03-18T03:41:25;99551.44;;;8.62;92.13
72570;BME280;60594;50.204;8.844;2023-03-18T03:43:52;99567.38;;;8.62;92.08
72570;BME280;60594;50.204;8.844;2023-03-18T03:46:18;99560.06;;;8.55;93.58
72570;BME280;60594;50.204;8.844;2023-03-18T03:48:45;99574.03;;;8.57;93.05
72570;BME280;60594;50.204;8.844;2023-03-18T03:51:13;99569.16;;;8.41;93.77
72570;BME280;60594;50.204;8.844;2023-03-18T03:53:40;99580.38;;;8.34;95.14
72570;BME280;60594;50.204;8.844;2023-03-18T03:56:07;99588.47;;;8.32;95.77
72570;BME280;60594;50.204;8.844;2023-03-18T03:58:34;99579.66;;;8.32;95.52
72570;BME280;60594;50.204;8.844;2023-03-18T04:01:02;99581.25;;;8.34;95.69
72570;BME280;60594;50.204;8.844;2023-03-18T04:03:30;99585.94;;;8.31;96.40
72570;BME280;60594;50.204;8.844;2023-03-18T04:05:57;99578.34;;;8.26;97.56
72570;BME280;60594;50.204;8.844;2023-03-18T04:08:26;99580.16;;;8.37;96.69
72570;BME280;60594;50.204;8.844;2023-03-18T04:10:52;99580.56;;;8.53;94.71
72570;BME280;60594;50.204;8.844;2023-03-18T04:13:20;99587.06;;;8.60;94.82
72570;BME280;60594;50.204;8.844;2023-03-18T04:15:46;99591.41;;;8.61;95.74
72570;BME280;60594;50.204;8.844;2023-03-18T04:18:17;99579.72;;;8.63;96.05
72570;BME280;60594;50.204;8.844;2023-03-18T04:20:44;99579.06;;;8.71;96.24
72570;BME280;60594;50.204;8.844;2023-03-18T04:23:22;99581.31;;;8.86;95.27
72570;BME280;60594;50.204;8.844;2023-03-18T04:25:48;99568.72;;;8.88;95.12
72570;BME280;60594;50.204;8.844;2023-03-18T04:28:16;99553.19;;;8.84;95.51
72570;BME280;60594;50.204;8.844;2023-03-18T04:30:42;99558.50;;;8.84;96.21
72570;BME280;60594;50.204;8.844;2023-03-18T04:33:13;99561.84;;;8.86;95.70
72570;BME280;60594;50.204;8.844;2023-03-18T04:35:41;99554.09;;;8.94;95.79
72570;BME280;60594;50.204;8.844;2023-03-18T04:38:13;99561.63;;;9.09;95.84
72570;BME280;60594;50.204;8.844;2023-03-18T04:40:39;99570.38;;;9.21;95.26
72570;BME280;60594;50.204;8.844;2023-03-18T04:43:06;99576.16;;;9.26;94.99
72570;BME280;60594;50.204;8.844;2023-03-18T04:45:33;99577.06;;;9.36;93.64
72570;BME280;60594;50.204;8.844;2023-03-18T04:48:01;99575.34;;;9.35;92.83
72570;BME280;60594;50.204;8.844;2023-03-18T04:50:31;99570.03;;;9.14;94.25
72570;BME280;60594;50.204;8.844;2023-03-18T04:52:57;99571.41;;;9.09;95.22
72570;BME280;60594;50.204;8.844;2023-03-18T04:55:27;99564.28;;;9.30;94.11
72570;BME280;60594;50.204;8.844;2023-03-18T04:57:55;99579.00;;;9.34;93.50
72570;BME280;60594;50.204;8.844;2023-03-18T05:00:24;99569.91;;;9.36;92.85
72570;BME280;60594;50.204;8.844;2023-03-18T05:02:57;99572.44;;;9.38;92.77
72570;BME280;60594;50.204;8.844;2023-03-18T05:05:25;99574.84;;;9.41;92.98
72570;BME280;60594;50.204;8.844;2023-03-18T05:07:52;99572.69;;;9.35;93.21
72570;BME280;60594;50.204;8.844;2023-03-18T05:10:20;99568.53;;;9.01;94.33
72570;BME280;60594;50.204;8.844;2023-03-18T05:12:47;99568.88;;;9.07;94.59
72570;BME280;60594;50.204;8.844;2023-03-18T05:15:17;99580.22;;;9.09;94.40
72570;BME280;60594;50.204;8.844;2023-03-18T05:17:49;99579.00;;;9.13;94.45
72570;BME280;60594;50.204;8.844;2023-03-18T05:20:17;99579.50;;;9.07;94.89
72570;BME280;60594;50.204;8.844;2023-03-18T05:22:46;99578.34;;;9.21;94.48
72570;BME280;60594;50.204;8.844;2023-03-18T05:25:19;99578.41;;;9.30;93.58
72570;BME280;60594;50.204;8.844;2023-03-18T05:27:46;99580.09;;;9.31;93.58
72570;BME280;60594;50.204;8.844;2023-03-18T05:30:23;99583.00;;;9.28;93.95
72570;BME280;60594;50.204;8.844;2023-03-18T05:32:52;99583.13;;;9.27;94.29
72570;BME280;60594;50.204;8.844;2023-03-18T05:35:23;99592.72;;;9.18;93.92
72570;BME280;60594;50.204;8.844;2023-03-18T05:37:52;99582.88;;;9.09;94.03
72570;BME280;60594;50.204;8.844;2023-03-18T05:40:20;99587.69;;;8.95;94.10
72570;BME280;60594;50.204;8.844;2023-03-18T05:43:04;99592.81;;;8.76;94.71
72570;BME280;60594;50.204;8.844;2023-03-18T05:45:37;99594.78;;;8.63;95.21
72570;BME280;60594;50.204;8.844;2023-03-18T05:48:05;99592.72;;;8.66;95.26
72570;BME280;60594;50.204;8.844;2023-03-18T05:50:42;99595.09;;;8.80;93.30
72570;BME280;60594;50.204;8.844;2023-03-18T05:53:12;99588.75;;;8.92;92.54
72570;BME280;60594;50.204;8.844;2023-03-18T05:55:42;99593.00;;;9.15;93.00
72570;BME280;60594;50.204;8.844;2023-03-18T05:58:09;99589.22;;;8.97;94.25
72570;BME280;60594;50.204;8.844;2023-03-18T06:00:38;99593.19;;;9.03;93.80
72570;BME280;60594;50.204;8.844;2023-03-18T06:03:04;99600.19;;;9.24;93.79
72570;BME280;60594;50.204;8.844;2023-03-18T06:05:32;99595.78;;;9.14;93.58
72570;BME280;60594;50.204;8.844;2023-03-18T06:07:59;99603.31;;;8.77;94.33
72570;BME280;60594;50.204;8.844;2023-03-18T06:10:26;99602.84;;;8.72;95.86
72570;BME280;60594;50.204;8.844;2023-03-18T06:12:53;99609.44;;;8.89;95.95
72570;BME280;60594;50.204;8.844;2023-03-18T06:15:21;99608.66;;;8.98;95.56
72570;BME280;60594;50.204;8.844;2023-03-18T06:17:48;99608.09;;;8.94;96.19
72570;BME280;60594;50.204;8.844;2023-03-18T06:20:15;99610.50;;;8.97;96.12
72570;BME280;60594;50.204;8.844;2023-03-18T06:22:47;99609.09;;;8.82;95.29
72570;BME280;60594;50.204;8.844;2023-03-18T06:25:16;99616.38;;;9.01;95.62
72570;BME280;60594;50.204;8.844;2023-03-18T06:27:43;99611.50;;;9.17;95.11
72570;BME280;60594;50.204;8.844;2023-03-18T06:30:10;99611.13;;;9.10;93.38
72570;BME280;60594;50.204;8.844;2023-03-18T06:32:39;99621.94;;;8.98;92.78
72570;BME280;60594;50.204;8.844;2023-03-18T06:35:07;99616.88;;;9.06;92.54
72570;BME280;60594;50.204;8.844;2023-03-18T06:37:37;99614.56;;;9.01;90.79
72570;BME280;60594;50.204;8.844;2023-03-18T06:40:08;99622.44;;;9.03;91.76
72570;BME280;60594;50.204;8.844;2023-03-18T06:42:35;99618.34;;;8.99;90.63
72570;BME280;60594;50.204;8.844;2023-03-18T06:45:08;99627.09;;;9.10;90.98
72570;BME280;60594;50.204;8.844;2023-03-18T06:47:55;99629.25;;;9.16;91.05
72570;BME280;60594;50.204;8.844;2023-03-18T06:50:26;99635.91;;;9.11;92.16
72570;BME280;60594;50.204;8.844;2023-03-18T06:52:58;99623.00;;;9.06;92.73
72570;BME280;60594;50.204;8.844;2023-03-18T06:55:32;99629.03;;;9.08;92.92
72570;BME280;60594;50.204;8.844;2023-03-18T06:57:59;99622.63;;;9.31;94.14
72570;BME280;60594;50.204;8.844;2023-03-18T07:00:34;99618.56;;;9.27;92.37
72570;BME280;60594;50.204;8.844;2023-03-18T07:03:02;99617.69;;;9.27;92.57
72570;BME280;60594;50.204;8.844;2023-03-18T07:05:30;99632.28;;;9.53;92.99
72570;BME280;60594;50.204;8.844;2023-03-18T07:08:01;99628.69;;;9.33;91.17
72570;BME280;60594;50.204;8.844;2023-03-18T07:10:29;99628.25;;;9.17;91.83
72570;BME280;60594;50.204;8.844;2023-03-18T07:13:05;99629.03;;;9.08;93.04
72570;BME280;60594;50.204;8.844;2023-03-18T07:15:31;99627.34;;;9.07;93.04
72570;BME280;60594;50.204;8.844;2023-03-18T07:18:03;99631.09;;;9.05;93.14
72570;BME280;60594;50.204;8.844;2023-03-18T07:20:35;99634.00;;;9.02;92.86
72570;BME280;60594;50.204;8.844;2023-03-18T07:23:02;99633.50;;;9.08;93.14
72570;BME280;60594;50.204;8.844;2023-03-18T07:25:29;99636.72;;;9.22;93.00
72570;BME280;60594;50.204;8.844;2023-03-18T07:28:00;99640.22;;;9.43;92.01
72570;BME280;60594;50.204;8.844;2023-03-18T07:30:26;99638.91;;;9.38;90.94
72570;BME280;60594;50.204;8.844;2023-03-18T07:32:54;99641.13;;;9.33;90.44
72570;BME280;60594;50.204;8.844;2023-03-18T07:35:21;99650.63;;;9.15;91.39
72570;BME280;60594;50.204;8.844;2023-03-18T07:37:48;99649.47;;;9.08;91.06
72570;BME280;60594;50.204;8.844;2023-03-18T07:40:15;99651.94;;;9.20;90.38
72570;BME280;60594;50.204;8.844;2023-03-18T07:42:42;99646.56;;;9.31;90.19
72570;BME280;60594;50.204;8.844;2023-03-18T07:45:10;99657.72;;;9.46;88.05
72570;BME280;60594;50.204;8.844;2023-03-18T07:47:37;99659.63;;;9.55;88.89
72570;BME280;60594;50.204;8.844;2023-03-18T07:50:03;99662.78;;;9.69;89.50
72570;BME280;60594;50.204;8.844;2023-03-18T07:52:31;99666.88;;;9.73;90.02
72570;BME280;60594;50.204;8.844;2023-03-18T07:54:57;99653.56;;;9.73;89.25
72570;BME280;60594;50.204;8.844;2023-03-18T07:57:24;99652.31;;;9.77;86.43
72570;BME280;60594;50.204;8.844;2023-03-18T07:59:51;99656.19;;;9.94;86.54
72570;BME280;60594;50.204;8.844;2023-03-18T08:02:17;99650.69;;;10.06;87.21
72570;BME280;60594;50.204;8.844;2023-03-18T08:04:45;99655.94;;;10.17;87.51
72570;BME280;60594;50.204;8.844;2023-03-18T08:07:12;99654.38;;;10.15;87.89
72570;BME280;60594;50.204;8.844;2023-03-18T08:09:39;99664.22;;;10.14;85.11
72570;BME280;60594;50.204;8.844;2023-03-18T08:12:06;99663.53;;;10.22;82.19
72570;BME280;60594;50.204;8.844;2023-03-18T08:14:33;99662.53;;;10.23;80.66
72570;BME280;60594;50.204;8.844;2023-03-18T08:17:00;99664.78;;;10.18;80.40
72570;BME280;60594;50.204;8.844;2023-03-18T08:19:27;99667.56;;;10.16;80.31
72570;BME280;60594;50.204;8.844;2023-03-18T08:21:54;99672.13;;;10.25;79.98
72570;BME280;60594;50.204;8.844;2023-03-18T08:24:21;99675.53;;;10.47;80.03
72570;BME280;60594;50.204;8.844;2023-03-18T08:26:47;99677.16;;;10.68;79.83
72570;BME280;60594;50.204;8.844;2023-03-18T08:29:14;99673.81;;;10.85;80.10
72570;BME280;60594;50.204;8.844;2023-03-18T08:31:49;99674.97;;;11.11;80.43
72570;BME280;60594;50.204;8.844;2023-03-18T08:34:24;99674.97;;;11.40;78.35
72570;BME280;60594;50.204;8.844;2023-03-18T08:36:50;99672.03;;;11.81;77.67
72570;BME280;60594;50.204;8.844;2023-03-18T08:39:17;99676.84;;;12.23;74.82
72570;BME280;60594;50.204;8.844;2023-03-18T08:41:44;99693.09;;;12.66;73.11
72570;BME280;60594;50.204;8.844;2023-03-18T08:44:17;99676.13;;;12.85;70.04
72570;BME280;60594;50.204;8.844;2023-03-18T08:46:43;99674.72;;;13.25;69.16
72570;BME280;60594;50.204;8.844;2023-03-18T08:49:10;99678.41;;;13.42;65.26
72570;BME280;60594;50.204;8.844;2023-03-18T08:51:39;99665.78;;;13.52;66.75
72570;BME280;60594;50.204;8.844;2023-03-18T08:54:05;99669.59;;;13.93;65.61
72570;BME280;60594;50.204;8.844;2023-03-18T08:56:33;99676.78;;;14.18;64.63
72570;BME280;60594;50.204;8.844;2023-03-18T08:58:59;99676.81;;;14.43;62.77
72570;BME280;60594;50.204;8.844;2023-03-18T09:01:26;99685.72;;;14.85;62.75
72570;BME280;60594;50.204;8.844;2023-03-18T09:03:53;99678.25;;;15.21;61.52
72570;BME280;60594;50.204;8.844;2023-03-18T09:06:21;99666.13;;;15.01;58.41
72570;BME280;60594;50.204;8.844;2023-03-18T09:08:50;99678.25;;;15.21;59.19
72570;BME280;60594;50.204;8.844;2023-03-18T09:11:17;99677.53;;;15.03;57.37
72570;BME280;60594;50.204;8.844;2023-03-18T09:13:44;99678.94;;;15.23;56.95
72570;BME280;60594;50.204;8.844;2023-03-18T09:16:13;99685.56;;;14.95;57.84
72570;BME280;60594;50.204;8.844;2023-03-18T09:18:39;99687.25;;;14.96;58.13
72570;BME280;60594;50.204;8.844;2023-03-18T09:21:06;99686.81;;;15.16;57.84
72570;BME280;60594;50.204;8.844;2023-03-18T09:23:33;99686.50;;;15.27;56.66
72570;BME280;60594;50.204;8.844;2023-03-18T09:26:00;99687.72;;;15.65;57.97
72570;BME280;60594;50.204;8.844;2023-03-18T09:28:30;99690.41;;;15.73;56.17
72570;BME280;60594;50.204;8.844;2023-03-18T09:30:57;99688.41;;;15.91;56.77
72570;BME280;60594;50.204;8.844;2023-03-18T09:33:24;99689.22;;;16.23;54.96
72570;BME280;60594;50.204;8.844;2023-03-18T09:35:51;99675.59;;;16.79;51.87
72570;BME280;60594;50.204;8.844;2023-03-18T09:38:19;99679.22;;;16.56;53.26
72570;BME280;60594;50.204;8.844;2023-03-18T09:44:02;99685.44;;;16.64;52.67
72570;BME280;60594;50.204;8.844;2023-03-18T09:49:33;99661.81;;;16.74;53.95
72570;BME280;60594;50.204;8.844;2023-03-18T09:52:19;99666.03;;;17.08;50.93
72570;BME280;60594;50.204;8.844;2023-03-18T09:55:03;99669.84;;;17.21;52.91
72570;BME280;60594;50.204;8.844;2023-03-18T09:57:36;99680.06;;;17.26;51.38
72570;BME280;60594;50.204;8.844;2023-03-18T10:00:26;99675.25;;;17.44;50.20
72570;BME280;60594;50.204;8.844;2023-03-18T10:03:02;99679.41;;;17.24;48.91
72570;BME280;60594;50.204;8.844;2023-03-18T10:05:45;99682.56;;;16.97;51.25
72570;BME280;60594;50.204;8.844;2023-03-18T10:10:50;99690.00;;;16.56;50.85
72570;BME280;60594;50.204;8.844;2023-03-18T10:13:21;99685.06;;;16.75;52.17
72570;BME280;60594;50.204;8.844;2023-03-18T10:15:56;99679.72;;;16.98;50.74
72570;BME280;60594;50.204;8.844;2023-03-18T10:18:31;99677.13;;;17.35;52.46
72570;BME280;60594;50.204;8.844;2023-03-18T10:23:48;99676.59;;;17.85;50.40
72570;BME280;60594;50.204;8.844;2023-03-18T10:26:27;99674.50;;;17.95;48.65
72570;BME280;60594;50.204;8.844;2023-03-18T10:32:17;99663.84;;;18.16;49.03
72570;BME280;60594;50.204;8.844;2023-03-18T10:37:56;99666.88;;;18.50;47.50
72570;BME280;60594;50.204;8.844;2023-03-18T10:40:34;99663.25;;;18.72;48.79
72570;BME280;60594;50.204;8.844;2023-03-18T10:43:03;99663.50;;;18.19;50.08
72570;BME280;60594;50.204;8.844;2023-03-18T10:45:30;99660.31;;;18.01;48.62
72570;BME280;60594;50.204;8.844;2023-03-18T10:48:11;99660.22;;;17.72;48.30
72570;BME280;60594;50.204;8.844;2023-03-18T10:53:17;99669.34;;;17.18;51.34
72570;BME280;60594;50.204;8.844;2023-03-18T10:55:54;99663.28;;;17.46;49.41
72570;BME280;60594;50.204;8.844;2023-03-18T10:58:23;99659.34;;;17.26;50.53
72570;BME280;60594;50.204;8.844;2023-03-18T11:00:50;99655.13;;;17.77;50.34
72570;BME280;60594;50.204;8.844;2023-03-18T11:03:25;99652.38;;;17.62;49.51
72570;BME280;60594;50.204;8.844;2023-03-18T11:05:54;99650.06;;;17.59;50.40
72570;BME280;60594;50.204;8.844;2023-03-18T11:08:30;99650.72;;;18.13;49.52
72570;BME280;60594;50.204;8.844;2023-03-18T11:13:49;99655.09;;;18.14;47.12
72570;BME280;60594;50.204;8.844;2023-03-18T11:16:22;99652.84;;;17.88;49.58
72570;BME280;60594;50.204;8.844;2023-03-18T11:18:51;99646.09;;;18.21;47.50
72570;BME280;60594;50.204;8.844;2023-03-18T11:21:18;99644.34;;;18.43;48.15
72570;BME280;60594;50.204;8.844;2023-03-18T11:23:52;99654.47;;;18.70;47.55
72570;BME280;60594;50.204;8.844;2023-03-18T11:26:53;99650.31;;;18.53;46.78
72570;BME280;60594;50.204;8.844;2023-03-18T11:29:26;99649.03;;;18.49;47.83
72570;BME280;60594;50.204;8.844;2023-03-18T11:31:54;99649.31;;;18.39;47.42
72570;BME280;60594;50.204;8.844;2023-03-18T11:34:32;99654.31;;;18.42;48.58
72570;BME280;60594;50.204;8.844;2023-03-18T11:37:05;99644.59;;;18.77;46.25
72570;BME280;60594;50.204;8.844;2023-03-18T11:39:38;99643.38;;;18.79;46.47
72570;BME280;60594;50.204;8.844;2023-03-18T11:42:17;99640.53;;;18.66;47.25
72570;BME280;60594;50.204;8.844;2023-03-18T11:44:45;99645.94;;;18.52;47.10
72570;BME280;60594;50.204;8.844;2023-03-18T11:47:31;99646.41;;;18.55;47.08
72570;BME280;60594;50.204;8.844;2023-03-18T11:50:01;99639.41;;;18.46;48.40
72570;BME280;60594;50.204;8.844;2023-03-18T11:52:38;99640.59;;;18.29;47.46
72570;BME280;60594;50.204;8.844;2023-03-18T11:55:19;99650.78;;;18.42;47.92
72570;BME280;60594;50.204;8.844;2023-03-18T11:58:13;99649.31;;;18.39;47.85
72570;BME280;60594;50.204;8.844;2023-03-18T12:01:42;99644.97;;;18.74;48.99
72570;BME280;60594;50.204;8.844;2023-03-18T12:18:54;99645.47;;;17.37;50.91
72570;BME280;60594;50.204;8.844;2023-03-18T12:24:17;99630.00;;;17.31;49.24
72570;BME280;60594;50.204;8.844;2023-03-18T12:27:07;99633.06;;;17.28;51.91
72570;BME280;60594;50.204;8.844;2023-03-18T12:29:49;99623.75;;;17.39;51.40
72570;BME280;60594;50.204;8.844;2023-03-18T12:32:25;99626.22;;;16.95;50.94
72570;BME280;60594;50.204;8.844;2023-03-18T12:46:12;99595.97;;;17.61;49.55
72570;BME280;60594;50.204;8.844;2023-03-18T12:48:51;99609.69;;;17.88;49.54
72570;BME280;60594;50.204;8.844;2023-03-18T12:51:26;99601.78;;;18.01;48.86
72570;BME280;60594;50.204;8.844;2023-03-18T12:53:58;99593.28;;;17.75;49.21
72570;BME280;60594;50.204;8.844;2023-03-18T12:56:35;99598.63;;;18.12;50.39
72570;BME280;60594;50.204;8.844;2023-03-18T12:59:11;99605.16;;;18.18;49.66
72570;BME280;60594;50.204;8.844;2023-03-18T13:01:48;99598.72;;;18.04;51.14
72570;BME280;60594;50.204;8.844;2023-03-18T13:04:21;99599.03;;;18.24;51.13
72570;BME280;60594;50.204;8.844;2023-03-18T13:09:56;99596.34;;;18.88;47.17
72570;BME280;60594;50.204;8.844;2023-03-18T13:12:31;99595.38;;;18.75;48.00
72570;BME280;60594;50.204;8.844;2023-03-18T13:15:10;99587.09;;;18.62;48.65
72570;BME280;60594;50.204;8.844;2023-03-18T13:17:41;99587.31;;;18.46;49.36
72570;BME280;60594;50.204;8.844;2023-03-18T13:20:23;99595.47;;;18.23;48.75
72570;BME280;60594;50.204;8.844;2023-03-18T13:23:03;99587.47;;;18.15;49.07
72570;BME280;60594;50.204;8.844;2023-03-18T13:25:45;99583.84;;;17.94;49.51
72570;BME280;60594;50.204;8.844;2023-03-18T13:28:36;99579.28;;;17.94;52.21
72570;BME280;60594;50.204;8.844;2023-03-18T13:31:21;99581.25;;;18.00;49.83
72570;BME280;60594;50.204;8.844;2023-03-18T13:39:18;99580.44;;;17.63;50.15
72570;BME280;60594;50.204;8.844;2023-03-18T13:42:10;99574.00;;;17.49;50.53
72570;BME280;60594;50.204;8.844;2023-03-18T13:44:56;99581.13;;;17.42;50.23
72570;BME280;60594;50.204;8.844;2023-03-18T13:47:29;99571.53;;;17.62;50.06
72570;BME280;60594;50.204;8.844;2023-03-18T13:50:01;99568.44;;;17.65;51.14
72570;BME280;60594;50.204;8.844;2023-03-18T13:52:39;99576.66;;;17.72;49.80
72570;BME280;60594;50.204;8.844;2023-03-18T13:58:17;99562.44;;;17.63;49.44
72570;BME280;60594;50.204;8.844;2023-03-18T14:01:10;99564.22;;;17.85;49.97
72570;BME280;60594;50.204;8.844;2023-03-18T14:08:44;99554.34;;;17.78;49.34
72570;BME280;60594;50.204;8.844;2023-03-18T14:13:43;99565.63;;;17.96;48.06
72570;BME280;60594;50.204;8.844;2023-03-18T14:16:12;99563.09;;;17.94;49.17
72570;BME280;60594;50.204;8.844;2023-03-18T14:18:40;99559.41;;;18.10;50.01
72570;BME280;60594;50.204;8.844;2023-03-18T14:21:22;99550.75;;;18.14;50.49
72570;BME280;60594;50.204;8.844;2023-03-18T14:26:35;99555.94;;;18.01;53.08
72570;BME280;60594;50.204;8.844;2023-03-18T14:37:03;99548.94;;;17.78;53.90
72570;BME280;60594;50.204;8.844;2023-03-18T14:39:31;99550.78;;;17.63;53.24
72570;BME280;60594;50.204;8.844;2023-03-18T14:42:01;99547.75;;;17.66;53.23
72570;BME280;60594;50.204;8.844;2023-03-18T14:44:45;99543.88;;;17.83;52.57
72570;BME280;60594;50.204;8.844;2023-03-18T14:47:24;99546.00;;;18.02;52.31
72570;BME280;60594;50.204;8.844;2023-03-18T14:50:01;99535.03;;;17.89;49.95
72570;BME280;60594;50.204;8.844;2023-03-18T14:52:35;99538.94;;;18.01;52.57